Time;durP1;ratioP1;P1;durP2;ratioP2;P2;SDS_P1;SDS_P2;PMS_P1;PMS_P2;Temp;Humidity;BMP_temperature;BMP_pressure;BME280_temperature;BME280_humidity;BME280_pressure;Samples;Min_cycle;Max_cycle;Signal;HPM_P1;HPM_P2
2023/07/25 00:02:12;;;;;;;7.20;2.78;;;;;;;12.13;100.00;100559.41;5104851;28;20465;-49
2023/07/25 00:04:37;;;;;;;6.35;3.25;;;;;;;12.16;100.00;100572.47;5073325;28;20039;-48
2023/07/25 00:07:03;;;;;;;10.13;2.72;;;;;;;12.01;100.00;100550.22;5092152;28;20032;-47
2023/07/25 00:09:28;;;;;;;9.50;3.22;;;;;;;12.03;100.00;100558.91;5091862;28;20391;-48
2023/07/25 00:11:54;;;;;;;10.75;2.58;;;;;;;12.45;100.00;100621.34;5092130;28;20471;-48
2023/07/25 00:14:19;;;;;;;8.25;2.88;;;;;;;12.50;100.00;100636.06;5091807;28;20074;-50
2023/07/25 00:16:45;;;;;;;4.85;2.92;;;;;;;12.49;100.00;100633.50;5092406;28;20032;-47
2023/07/25 00:19:10;;;;;;;9.23;2.90;;;;;;;12.05;100.00;100551.81;5091666;28;20126;-46
2023/07/25 00:21:35;;;;;;;12.05;3.78;;;;;;;12.47;100.00;100625.63;5092400;28;20040;-53
2023/07/25 00:24:01;;;;;;;6.57;3.15;;;;;;;12.09;100.00;100557.81;5092093;28;20201;-46
2023/07/25 00:26:26;;;;;;;5.70;2.30;;;;;;;12.46;100.00;100618.66;5093540;28;20059;-50
2023/07/25 00:28:51;;;;;;;8.20;2.80;;;;;;;12.47;100.00;100608.91;5112126;28;20032;-47
2023/07/25 00:31:17;;;;;;;6.88;2.30;;;;;;;12.45;100.00;100616.06;5109041;28;20447;-48
2023/07/25 00:33:42;;;;;;;11.73;3.08;;;;;;;12.01;100.00;100542.31;5092036;28;20368;-49
2023/07/25 00:36:07;;;;;;;8.85;2.97;;;;;;;12.33;100.00;100598.97;5092169;28;20032;-49
2023/07/25 00:38:33;;;;;;;8.02;2.42;;;;;;;12.29;100.00;100606.16;5091315;28;20055;-49
2023/07/25 00:40:58;;;;;;;6.00;2.67;;;;;;;11.99;100.00;100551.22;5092079;28;20028;-46
2023/07/25 00:43:24;;;;;;;9.25;2.65;;;;;;;12.31;100.00;100608.75;5091005;28;20123;-48
2023/07/25 00:45:49;;;;;;;7.60;2.80;;;;;;;12.27;100.00;100608.00;5091970;28;20134;-49
2023/07/25 00:48:14;;;;;;;6.28;2.15;;;;;;;12.26;100.00;100610.69;5073848;28;20115;-54
2023/07/25 00:50:40;;;;;;;6.07;2.60;;;;;;;12.22;100.00;100609.13;5091876;28;20134;-53
2023/07/25 00:53:06;;;;;;;7.95;2.50;;;;;;;12.16;100.00;100606.75;5072057;28;20024;-49
2023/07/25 00:55:32;;;;;;;5.47;2.65;;;;;;;12.14;100.00;100613.88;5092997;28;20044;-51
2023/07/25 00:57:57;;;;;;;6.32;2.60;;;;;;;11.62;100.00;100522.84;5111450;28;20044;-48
2023/07/25 01:00:23;;;;;;;8.35;3.45;;;;;;;11.77;100.00;100559.16;5093934;28;20034;-52
2023/07/25 01:02:48;;;;;;;6.15;2.75;;;;;;;11.61;100.00;100527.28;5111961;28;20023;-49
2023/07/25 01:05:14;;;;;;;7.75;2.90;;;;;;;11.74;100.00;100557.50;5111918;28;20416;-49
2023/07/25 01:07:40;;;;;;;5.63;2.35;;;;;;;11.85;100.00;100567.59;5086449;28;20042;-49
2023/07/25 01:10:06;;;;;;;8.85;3.42;;;;;;;12.09;100.00;100613.19;5073003;28;20501;-49
2023/07/25 01:12:32;;;;;;;8.10;2.25;;;;;;;12.07;100.00;100613.28;5091719;28;20078;-51
2023/07/25 01:14:57;;;;;;;6.05;2.35;;;;;;;12.03;100.00;100605.53;5091344;28;20368;-48
2023/07/25 01:17:24;;;;;;;7.28;2.70;;;;;;;11.99;100.00;100615.38;5056681;28;20074;-49
2023/07/25 01:19:49;;;;;;;5.95;2.50;;;;;;;11.52;100.00;100530.31;5073652;28;20114;-48
2023/07/25 01:22:15;;;;;;;5.82;2.28;;;;;;;11.86;100.00;100598.34;5076492;28;20040;-52
2023/07/25 01:24:42;;;;;;;8.38;2.67;;;;;;;11.58;100.00;100550.28;5095181;28;20444;-50
2023/07/25 01:27:08;;;;;;;6.60;2.42;;;;;;;11.88;100.00;100608.84;5093934;28;20032;-50
2023/07/25 01:29:33;;;;;;;8.52;2.88;;;;;;;11.55;100.00;100551.25;5094673;28;20166;-47
2023/07/25 01:31:59;;;;;;;9.13;3.00;;;;;;;11.44;100.00;100521.81;5095039;28;20036;-48
2023/07/25 01:34:24;;;;;;;6.72;2.63;;;;;;;11.59;100.00;100555.47;5095057;28;20032;-51
2023/07/25 01:36:49;;;;;;;8.13;2.78;;;;;;;11.42;100.00;100518.41;5094982;28;20035;-50
2023/07/25 01:39:15;;;;;;;7.03;3.10;;;;;;;11.86;100.00;100593.06;5094704;28;20036;-52
2023/07/25 01:41:42;;;;;;;6.00;2.47;;;;;;;11.36;100.00;100508.09;5094893;28;20032;-47
2023/07/25 01:44:07;;;;;;;6.40;2.38;;;;;;;11.41;100.00;100514.06;5105831;28;20065;-53
2023/07/25 01:46:33;;;;;;;7.60;2.72;;;;;;;11.50;100.00;100529.47;5096748;28;20660;-48
2023/07/25 01:48:58;;;;;;;9.13;2.80;;;;;;;11.51;100.00;100531.22;5105306;28;20038;-49
2023/07/25 01:51:23;;;;;;;4.72;2.40;;;;;;;11.89;100.00;100585.03;5094785;28;20115;-50
2023/07/25 01:53:50;;;;;;;8.23;2.30;;;;;;;11.92;100.00;100579.63;5095010;28;20116;-47
2023/07/25 01:56:16;;;;;;;4.65;2.60;;;;;;;11.93;100.00;100580.50;5094462;28;20032;-49
2023/07/25 01:58:41;;;;;;;5.15;2.30;;;;;;;11.98;100.00;100581.16;5094377;28;20105;-49
2023/07/25 02:01:06;;;;;;;5.65;2.10;;;;;;;12.05;100.00;100577.34;5093932;28;20050;-48
2023/07/25 02:03:32;;;;;;;6.72;2.47;;;;;;;12.04;100.00;100563.28;5097022;28;20038;-49
2023/07/25 02:05:57;;;;;;;9.55;2.10;;;;;;;11.87;100.00;100523.59;5076239;28;20028;-48
2023/07/25 02:08:22;;;;;;;5.38;2.45;;;;;;;12.15;100.00;100558.41;5059406;28;20035;-50
2023/07/25 02:10:48;;;;;;;7.35;2.83;;;;;;;12.39;100.00;100583.72;5101531;28;20348;-49
2023/07/25 02:13:13;;;;;;;6.32;2.38;;;;;;;12.50;100.00;100582.38;5114412;28;20501;-48
2023/07/25 02:15:38;;;;;;;6.00;2.00;;;;;;;12.29;100.00;100526.97;5111654;28;20553;-48
2023/07/25 02:18:04;;;;;;;8.57;2.72;;;;;;;12.71;100.00;100574.38;5100085;28;20042;-47
2023/07/25 02:20:31;;;;;;;4.35;1.77;;;;;;;12.83;100.00;100571.19;5104194;28;20078;-49
2023/07/25 02:22:57;;;;;;;4.38;2.17;;;;;;;12.96;100.00;100572.31;5114352;28;20424;-50
2023/07/25 02:25:22;;;;;;;6.90;2.58;;;;;;;13.08;100.00;100575.34;5111891;28;20040;-48
2023/07/25 02:27:47;;;;;;;8.00;2.30;;;;;;;13.13;100.00;100571.59;5076920;28;20028;-52
2023/07/25 02:30:13;;;;;;;4.50;2.65;;;;;;;13.24;100.00;100574.56;5093959;28;20119;-49
2023/07/25 02:32:38;;;;;;;6.80;2.40;;;;;;;13.29;100.00;100569.06;5093275;28;20028;-49
2023/07/25 02:35:04;;;;;;;10.77;2.75;;;;;;;13.28;100.00;100554.16;5093114;28;20036;-49
2023/07/25 02:37:29;;;;;;;8.10;2.42;;;;;;;13.35;100.00;100576.69;5093631;28;20036;-49
2023/07/25 02:39:54;;;;;;;8.93;2.33;;;;;;;13.15;100.00;100524.78;5075299;28;20454;-49
2023/07/25 02:42:19;;;;;;;7.97;2.13;;;;;;;13.22;100.00;100526.19;5075844;28;20561;-47
2023/07/25 02:44:45;;;;;;;7.80;2.03;;;;;;;13.59;100.00;100574.66;5093603;28;20514;-48
2023/07/25 02:47:10;;;;;;;5.13;1.85;;;;;;;13.63;100.00;100581.53;5075631;28;20135;-47
2023/07/25 02:49:35;;;;;;;5.30;1.85;;;;;;;13.29;100.00;100518.84;5092125;28;20121;-51
2023/07/25 02:52:01;;;;;;;7.60;1.92;;;;;;;13.35;100.00;100523.81;5093255;28;20044;-50
2023/07/25 02:54:26;;;;;;;7.50;2.38;;;;;;;13.72;100.00;100595.13;5075252;28;20036;-50
2023/07/25 02:56:51;;;;;;;9.68;2.30;;;;;;;13.75;100.00;100592.34;5092407;28;20150;-47
2023/07/25 02:59:19;;;;;;;6.38;2.20;;;;;;;13.31;100.00;100511.72;5095580;28;20066;-48
2023/07/25 03:01:44;;;;;;;7.20;2.10;;;;;;;13.69;100.00;100586.50;5110454;28;20071;-49
2023/07/25 03:04:09;;;;;;;9.07;2.40;;;;;;;13.37;100.00;100506.09;5110512;28;20062;-53
2023/07/25 03:06:35;;;;;;;11.95;2.35;;;;;;;13.46;100.00;100521.50;5093212;28;20032;-51
2023/07/25 03:09:00;;;;;;;6.53;2.38;;;;;;;13.56;100.00;100540.44;5093225;28;20387;-50
2023/07/25 03:11:25;;;;;;;6.80;2.45;;;;;;;13.77;100.00;100569.34;5085720;28;20074;-48
2023/07/25 03:13:51;;;;;;;7.55;2.40;;;;;;;13.49;100.00;100530.16;5095240;28;20028;-52
2023/07/25 03:16:16;;;;;;;7.13;2.20;;;;;;;13.77;100.00;100569.34;5113402;28;20034;-49
2023/07/25 03:18:41;;;;;;;9.75;2.53;;;;;;;13.38;100.00;100502.53;5113374;28;20035;-51
2023/07/25 03:21:06;;;;;;;7.93;2.92;;;;;;;13.36;100.00;100493.81;5106596;28;20094;-47
2023/07/25 03:23:32;;;;;;;7.50;2.30;;;;;;;13.68;100.00;100567.13;5092668;28;20075;-48
2023/07/25 03:25:57;;;;;;;9.38;3.00;;;;;;;13.40;100.00;100519.16;5073459;28;20151;-50
2023/07/25 03:28:22;;;;;;;8.95;2.13;;;;;;;13.74;100.00;100574.78;5093102;28;20398;-51
2023/07/25 03:30:48;;;;;;;5.72;2.58;;;;;;;13.78;100.00;100580.75;5093589;28;20027;-48
2023/07/25 03:33:13;;;;;;;7.05;2.50;;;;;;;13.80;100.00;100573.63;5113118;28;20496;-48
2023/07/25 03:35:38;;;;;;;10.20;2.38;;;;;;;13.71;100.00;100556.41;5113264;28;20517;-48
2023/07/25 03:38:04;;;;;;;5.75;2.25;;;;;;;13.48;100.00;100503.81;5086407;28;20115;-49
2023/07/25 03:40:29;;;;;;;9.00;2.92;;;;;;;13.92;100.00;100587.06;5091395;28;20048;-52
2023/07/25 03:42:54;;;;;;;6.30;2.15;;;;;;;13.73;100.00;100553.66;5111220;28;20075;-48
2023/07/25 03:45:20;;;;;;;8.02;2.70;;;;;;;13.89;100.00;100565.22;5091289;28;20068;-48
2023/07/25 03:47:45;;;;;;;5.88;2.28;;;;;;;14.03;100.00;100581.25;5074405;28;20062;-47
2023/07/25 03:50:10;;;;;;;6.80;2.88;;;;;;;14.04;100.00;100575.88;5104605;28;20242;-50
2023/07/25 03:52:36;;;;;;;8.63;2.03;;;;;;;14.04;100.00;100581.16;5082387;28;20514;-48
2023/07/25 03:55:01;;;;;;;6.13;2.10;;;;;;;14.02;100.00;100571.59;5091537;28;20066;-51
2023/07/25 03:57:27;;;;;;;7.75;2.50;;;;;;;14.02;100.00;100566.28;5092229;28;20055;-48
2023/07/25 03:59:52;;;;;;;6.93;2.38;;;;;;;14.17;100.00;100583.19;5092643;28;20118;-51
2023/07/25 04:02:17;;;;;;;8.90;2.45;;;;;;;13.90;100.00;100538.66;5092315;28;20036;-47
2023/07/25 04:04:43;;;;;;;5.13;1.95;;;;;;;14.22;100.00;100583.81;5074476;28;20032;-51
2023/07/25 04:07:08;;;;;;;7.72;2.13;;;;;;;14.22;100.00;100594.38;5100796;28;20036;-51
2023/07/25 04:09:33;;;;;;;5.78;1.77;;;;;;;13.85;100.00;100516.88;5112631;28;20096;-52
2023/07/25 04:11:58;;;;;;;8.35;1.77;;;;;;;14.30;100.00;100584.28;5082092;28;20553;-50
2023/07/25 04:14:24;;;;;;;4.82;2.22;;;;;;;14.32;100.00;100593.88;5091322;28;20110;-54
2023/07/25 04:16:49;;;;;;;7.30;2.45;;;;;;;14.36;100.00;100594.59;5092350;28;20533;-51
2023/07/25 04:19:15;;;;;;;6.28;1.92;;;;;;;13.70;100.00;100482.41;5092154;28;20047;-48
2023/07/25 04:21:40;;;;;;;7.47;2.30;;;;;;;14.21;100.00;100572.38;5074117;28;20032;-49
2023/07/25 04:24:05;;;;;;;7.65;1.92;;;;;;;14.09;100.00;100557.13;5092146;28;20115;-47
2023/07/25 04:26:31;;;;;;;6.70;1.60;;;;;;;14.40;100.00;100607.59;5091463;28;20052;-48
2023/07/25 04:28:56;;;;;;;7.80;1.42;;;;;;;14.43;100.00;100606.56;5097219;28;20081;-49
2023/07/25 04:31:21;;;;;;;4.72;1.65;;;;;;;14.38;100.00;100590.06;5108343;28;20398;-47
2023/07/25 04:33:47;;;;;;;5.10;1.38;;;;;;;14.52;100.00;100609.59;5077234;28;20043;-48
2023/07/25 04:36:13;;;;;;;5.72;1.70;;;;;;;14.62;100.00;100624.06;5112199;28;20043;-47
2023/07/25 04:38:38;;;;;;;8.10;1.55;;;;;;;14.25;100.00;100550.09;5111420;28;20036;-49
2023/07/25 04:41:03;;;;;;;4.18;1.65;;;;;;;14.70;100.00;100614.88;5110032;28;20032;-51
2023/07/25 04:43:29;;;;;;;5.72;1.60;;;;;;;14.76;100.00;100626.00;5112585;28;20061;-50
2023/07/25 04:45:54;;;;;;;9.40;1.98;;;;;;;14.44;100.00;100555.31;5079037;28;20471;-49
2023/07/25 04:48:19;;;;;;;7.65;1.63;;;;;;;14.49;100.00;100564.72;5092469;28;20036;-52
2023/07/25 04:50:45;;;;;;;7.57;1.80;;;;;;;14.58;100.00;100560.75;5073898;28;20064;-49
2023/07/25 04:53:10;;;;;;;6.32;1.92;;;;;;;14.95;100.00;100629.38;5091938;28;20065;-48
2023/07/25 04:55:35;;;;;;;7.38;1.33;;;;;;;14.83;100.00;100597.38;5073741;28;20126;-49
2023/07/25 04:58:02;;;;;;;6.57;1.50;;;;;;;14.72;100.00;100574.09;5077098;28;20135;-50
2023/07/25 05:00:27;;;;;;;5.93;1.70;;;;;;;14.69;100.00;100568.97;5077072;28;20036;-48
2023/07/25 05:02:53;;;;;;;5.65;1.52;;;;;;;15.09;100.00;100634.78;5076696;28;20032;-50
2023/07/25 05:05:18;;;;;;;6.45;1.80;;;;;;;14.98;100.00;100628.34;5094628;28;20071;-53
2023/07/25 05:07:43;;;;;;;6.40;1.63;;;;;;;14.98;100.00;100626.56;5076429;28;20043;-48
2023/07/25 05:10:09;;;;;;;6.65;1.45;;;;;;;15.00;100.00;100634.44;5095436;28;20035;-50
2023/07/25 05:12:34;;;;;;;7.03;1.33;;;;;;;14.55;100.00;100564.41;5077629;28;20046;-50
2023/07/25 05:14:59;;;;;;;4.85;1.52;;;;;;;15.04;100.00;100642.13;5077300;28;20032;-48
2023/07/25 05:17:25;;;;;;;4.68;1.30;;;;;;;14.73;100.00;100580.25;5094395;28;20490;-45
2023/07/25 05:19:50;;;;;;;3.50;1.13;;;;;;;15.16;100.00;100654.75;5095358;28;20236;-49
2023/07/25 05:22:16;;;;;;;6.63;1.50;;;;;;;14.99;100.00;100619.47;5096298;28;20119;-48
2023/07/25 05:24:41;;;;;;;3.22;1.15;;;;;;;15.22;100.00;100648.25;5094911;28;20032;-48
2023/07/25 05:27:06;;;;;;;8.30;1.42;;;;;;;14.77;100.00;100569.41;5095164;28;20044;-49
2023/07/25 05:29:33;;;;;;;6.72;1.80;;;;;;;15.14;100.00;100621.28;5101843;28;20035;-51
2023/07/25 05:31:58;;;;;;;7.13;1.80;;;;;;;15.22;100.00;100624.38;5096976;28;20027;-47
2023/07/25 05:34:24;;;;;;;5.22;1.92;;;;;;;15.28;100.00;100645.25;5114218;28;20459;-51
2023/07/25 05:36:49;;;;;;;4.00;1.48;;;;;;;15.02;100.00;100603.41;5094989;28;20032;-48
2023/07/25 05:39:14;;;;;;;7.47;1.58;;;;;;;14.91;100.00;100592.53;5094490;28;20108;-49
2023/07/25 05:41:41;;;;;;;6.25;1.63;;;;;;;15.17;100.00;100640.56;5094522;28;20403;-49
2023/07/25 05:44:06;;;;;;;7.13;2.25;;;;;;;14.70;100.00;100570.69;5076895;28;20042;-48
2023/07/25 05:46:32;;;;;;;7.35;2.03;;;;;;;14.64;100.00;100578.97;5094398;28;20032;-46
2023/07/25 05:48:57;;;;;;;5.93;2.08;;;;;;;15.01;100.00;100652.03;5094602;28;20032;-49
2023/07/25 05:51:22;;;;;;;4.78;1.30;;;;;;;14.75;100.00;100610.16;5094249;28;20390;-48
2023/07/25 05:53:48;;;;;;;6.20;1.50;;;;;;;14.96;100.00;100646.13;5093634;28;20032;-51
2023/07/25 05:56:13;;;;;;;3.08;1.30;;;;;;;15.02;100.00;100659.94;5095752;28;20024;-48
2023/07/25 05:58:39;;;;;;;5.30;1.45;;;;;;;15.07;100.00;100654.38;5092566;28;20060;-48
2023/07/25 06:01:05;;;;;;;7.55;1.75;;;;;;;15.18;100.00;100662.59;5094602;28;20055;-48
2023/07/25 06:03:30;;;;;;;5.38;1.00;;;;;;;15.31;100.00;100654.84;5094397;28;20097;-49
2023/07/25 06:05:55;;;;;;;4.72;1.15;;;;;;;15.29;100.00;100635.50;5094236;28;20508;-47
2023/07/25 06:08:21;;;;;;;6.55;1.70;;;;;;;15.51;100.00;100650.19;5075401;28;20391;-53
2023/07/25 06:10:46;;;;;;;7.25;1.65;;;;;;;15.57;100.00;100641.03;5093896;28;20040;-49
2023/07/25 06:13:11;;;;;;;5.35;1.33;;;;;;;15.85;100.00;100664.22;5106436;28;20494;-45
2023/07/25 06:15:37;;;;;;;5.22;1.40;;;;;;;15.97;100.00;100668.81;5096136;28;20470;-48
2023/07/25 06:18:03;;;;;;;4.97;1.52;;;;;;;15.98;100.00;100641.31;5111273;28;20073;-50
2023/07/25 06:20:29;;;;;;;4.45;1.00;;;;;;;16.22;100.00;100669.97;5110394;28;20483;-46
2023/07/25 06:22:54;;;;;;;4.63;1.27;;;;;;;15.86;100.00;100599.56;5093380;28;20102;-48
2023/07/25 06:25:19;;;;;;;4.80;1.23;;;;;;;16.32;100.00;100672.94;5092757;28;20040;-49
2023/07/25 06:27:45;;;;;;;4.15;1.35;;;;;;;16.00;100.00;100605.78;5063404;28;20044;-48
2023/07/25 06:30:10;;;;;;;4.70;1.00;;;;;;;15.75;100.00;100555.06;5114083;28;20024;-51
2023/07/25 06:32:37;;;;;;;5.75;1.10;;;;;;;16.54;100.00;100675.22;5095833;28;20035;-50
2023/07/25 06:35:04;;;;;;;5.13;1.40;;;;;;;16.57;100.00;100675.06;5095920;28;20393;-48
2023/07/25 06:37:32;;;;;;;4.38;1.10;;;;;;;16.33;100.00;100624.19;5113891;28;20531;-51
2023/07/25 06:40:00;;;;;;;4.07;0.98;;;;;;;16.58;100.00;100668.81;5114107;28;20035;-49
2023/07/25 06:42:25;;;;;;;3.83;0.98;;;;;;;16.29;100.00;100604.91;5110898;28;20124;-51
2023/07/25 06:44:51;;;;;;;7.00;1.02;;;;;;;16.89;100.00;100671.31;5113324;28;20055;-51
2023/07/25 06:47:16;;;;;;;4.53;1.08;;;;;;;17.13;100.00;100684.91;5113780;28;20023;-47
2023/07/25 06:49:41;;;;;;;5.07;1.20;;;;;;;17.15;100.00;100680.34;5113885;28;20031;-48
2023/07/25 06:52:06;;;;;;;7.20;1.75;;;;;;;16.86;100.00;100663.53;5113366;28;20028;-52
2023/07/25 06:54:32;;;;;;;3.10;1.00;;;;;;;16.62;100.00;100610.03;5113709;28;20051;-48
2023/07/25 06:56:57;;;;;;;4.00;1.30;;;;;;;16.93;100.00;100686.09;5091608;28;20032;-50
2023/07/25 06:59:24;;;;;;;7.47;1.48;;;;;;;16.81;100.00;100662.94;5092332;28;20046;-48
2023/07/25 07:01:49;;;;;;;4.93;1.00;;;;;;;16.99;100.00;100684.91;5087029;28;20036;-50
2023/07/25 07:04:15;;;;;;;4.55;1.13;;;;;;;16.92;100.00;100683.56;5110326;28;20040;-51
2023/07/25 07:06:40;;;;;;;6.50;1.20;;;;;;;16.53;100.00;100610.56;5113328;28;20402;-52
2023/07/25 07:09:05;;;;;;;3.38;0.90;;;;;;;16.94;100.00;100686.97;5113547;28;20441;-45
2023/07/25 07:11:31;;;;;;;2.83;0.90;;;;;;;16.70;100.00;100628.16;5095157;28;20086;-47
2023/07/25 07:13:56;;;;;;;5.90;1.27;;;;;;;17.33;100.00;100695.16;5101625;28;20051;-48
2023/07/25 07:16:21;;;;;;;2.92;1.30;;;;;;;17.26;100.00;100680.53;5093972;28;20122;-48
2023/07/25 07:18:47;;;;;;;2.15;0.70;;;;;;;17.12;100.00;100677.88;5074063;28;20402;-49
2023/07/25 07:21:12;;;;;;;4.13;1.05;;;;;;;16.81;100.00;100623.91;5092618;28;20034;-48
2023/07/25 07:23:37;;;;;;;2.67;0.70;;;;;;;17.22;100.00;100692.31;5093070;28;20162;-51
2023/07/25 07:26:03;;;;;;;2.25;0.75;;;;;;;17.24;100.00;100696.59;5092809;28;20053;-50
2023/07/25 07:28:29;;;;;;;3.67;0.90;;;;;;;17.29;100.00;100689.16;5091835;28;20459;-51
2023/07/25 07:30:55;;;;;;;4.40;0.70;;;;;;;16.86;100.00;100621.84;5092084;28;20067;-48
2023/07/25 07:33:20;;;;;;;2.00;1.08;;;;;;;16.97;100.00;100628.28;5095774;28;20055;-52
2023/07/25 07:35:46;;;;;;;2.17;0.80;;;;;;;17.18;100.00;100641.13;5094804;28;20556;-53
2023/07/25 07:38:11;;;;;;;3.83;0.77;;;;;;;17.82;100.00;100693.78;5112813;28;20063;-54
2023/07/25 07:40:37;;;;;;;2.33;0.55;;;;;;;17.81;100.00;100705.38;5094615;28;20028;-51
2023/07/25 07:43:02;;;;;;;2.28;0.55;;;;;;;17.44;100.00;100652.75;5112833;28;20380;-47
2023/07/25 07:45:29;;;;;;;2.20;0.77;;;;;;;17.58;100.00;100690.03;5109957;28;20038;-47
2023/07/25 07:47:55;;;;;;;4.43;0.80;;;;;;;17.30;100.00;100639.50;5109263;28;20039;-50
2023/07/25 07:50:20;;;;;;;2.92;0.88;;;;;;;17.62;100.00;100640.13;5106713;28;20040;-49
2023/07/25 07:52:46;;;;;;;4.60;0.90;;;;;;;18.60;100.00;100696.63;5079096;28;20043;-54
2023/07/25 07:55:12;;;;;;;2.08;0.65;;;;;;;19.03;100.00;100663.41;5095576;28;20079;-46
2023/07/25 07:57:42;;;;;;;3.65;0.65;;;;;;;19.29;100.00;100731.81;5091893;28;20070;-52
2023/07/25 08:00:08;;;;;;;2.85;0.60;;;;;;;18.94;100.00;100672.88;5074319;28;20199;-50
2023/07/25 08:02:34;;;;;;;3.42;0.70;;;;;;;18.92;100.00;100741.50;5092636;28;20024;-48
2023/07/25 08:04:59;;;;;;;2.38;0.75;;;;;;;18.40;100.00;100657.97;5074932;28;20085;-48
2023/07/25 08:07:24;;;;;;;4.00;0.70;;;;;;;18.98;100.00;100729.53;5092400;28;20046;-49
2023/07/25 08:09:59;;;;;;;2.15;0.75;;;;;;;18.87;100.00;100670.75;5089477;28;20495;-48
2023/07/25 08:12:24;;;;;;;6.68;1.38;;;;;;;18.98;100.00;100676.19;5089643;28;20036;-48
2023/07/25 08:14:49;;;;;;;3.60;0.75;;;;;;;19.58;100.00;100727.13;5086287;28;20118;-47
2023/07/25 08:17:15;;;;;;;3.72;0.82;;;;;;;19.69;100.00;100735.19;5089541;28;20032;-51
2023/07/25 08:19:41;;;;;;;2.75;1.05;;;;;;;19.40;100.00;100739.94;5071009;28;20119;-48
2023/07/25 08:22:07;;;;;;;3.55;0.63;;;;;;;19.12;100.00;100736.63;5070816;28;20044;-50
2023/07/25 08:24:32;;;;;;;1.95;0.65;;;;;;;18.70;100.00;100732.41;5073309;28;20031;-47
2023/07/25 08:26:59;;;;;;;3.00;0.73;;;;;;;18.28;100.00;100667.66;5088716;28;20071;-54
2023/07/25 08:29:25;;;;;;;2.05;0.70;;;;;;;19.10;100.00;100732.22;5070736;28;20043;-49
2023/07/25 08:31:50;;;;;;;3.58;0.80;;;;;;;19.53;100.00;100682.03;5092449;28;20568;-50
2023/07/25 08:34:16;;;;;;;3.00;0.82;;;;;;;20.76;100.00;100729.00;5095714;28;20184;-49
2023/07/25 08:36:41;;;;;;;2.92;1.00;;;;;;;21.22;100.00;100697.72;5093855;28;20085;-54
2023/07/25 08:39:06;;;;;;;2.20;0.77;;;;;;;21.94;100.00;100764.34;5075278;28;20101;-53
2023/07/25 08:41:35;;;;;;;4.72;0.90;;;;;;;21.26;100.00;100712.59;5093787;28;20171;-50
2023/07/25 08:44:01;;;;;;;2.95;0.70;;;;;;;21.02;100.00;100730.53;5076310;28;20585;-51
2023/07/25 08:46:27;;;;;;;2.63;0.70;;;;;;;20.67;100.00;100762.66;5093537;28;20219;-53
2023/07/25 08:48:57;;;;;;;3.47;0.70;;;;;;;21.31;100.00;100782.69;5074518;28;20036;-50
2023/07/25 08:51:22;;;;;;;3.28;0.85;;;;;;;21.47;100.00;100768.97;5098880;28;20136;-51
2023/07/25 08:53:53;;;;;;;3.83;0.90;;;;;;;20.71;100.00;100753.44;5095819;28;20543;-50
2023/07/25 08:56:19;;;;;;;3.55;0.80;;;;;;;20.09;100.00;100779.44;5096120;28;20067;-49
2023/07/25 08:58:45;;;;;;;3.70;0.82;;;;;;;19.56;100.00;100785.94;5113659;28;20483;-52
2023/07/25 09:01:10;;;;;;;2.42;0.70;;;;;;;19.44;100.00;100772.63;5100827;28;20447;-49
2023/07/25 09:03:36;;;;;;;3.35;1.20;;;;;;;19.52;100.00;100682.16;5074030;28;20044;-51
2023/07/25 09:06:02;;;;;;;4.90;1.05;;;;;;;20.49;100.00;100782.72;5058356;28;20097;-49
2023/07/25 09:08:27;;;;;;;0.82;0.50;;;;;;;20.10;100.00;100705.47;5084654;28;20162;-46
2023/07/25 09:10:53;;;;;;;2.63;0.55;;;;;;;20.30;100.00;100797.59;5092609;28;20121;-48
2023/07/25 09:13:19;;;;;;;3.53;0.68;;;;;;;19.87;100.00;100799.81;5085351;28;20066;-51
2023/07/25 09:15:44;;;;;;;2.42;0.47;;;;;;;19.67;100.00;100803.91;5074683;28;20036;-48
2023/07/25 09:18:10;;;;;;;2.38;0.63;;;;;;;20.16;100.00;100815.47;5094147;28;20043;-49
2023/07/25 09:20:36;;;;;;;4.55;1.20;;;;;;;20.63;100.00;100691.66;5095119;28;20032;-50
2023/07/25 09:23:03;;;;;;;2.22;0.43;;;;;;;22.49;100.00;100777.63;5108857;28;20052;-51
2023/07/25 09:25:28;;;;;;;4.00;0.85;;;;;;;23.16;100.00;100751.34;5093020;28;20028;-49
2023/07/25 09:27:54;;;;;;;2.33;0.70;;;;;;;23.61;100.00;100794.91;5099011;28;20214;-48
2023/07/25 09:30:19;;;;;;;4.05;0.70;;;;;;;23.24;100.00;100769.47;5095888;28;20189;-50
2023/07/25 09:32:48;;;;;;;3.25;1.17;;;;;;;23.10;100.00;100826.19;5105202;28;20039;-49
2023/07/25 09:35:13;;;;;;;3.92;0.93;;;;;;;21.74;100.00;100779.31;5103069;28;20060;-49
2023/07/25 09:37:39;;;;;;;2.47;0.88;;;;;;;21.00;100.00;100817.25;5104650;28;20085;-49
2023/07/25 09:40:10;;;;;;;5.03;0.90;;;;;;;20.38;100.00;100811.22;5113010;28;20035;-47
2023/07/25 09:42:40;;;;;;;1.40;0.60;;;;;;;19.92;100.00;100843.06;5109756;28;20081;-48
2023/07/25 09:45:08;;;;;;;2.20;0.57;;;;;;;19.22;100.00;100757.22;5074123;28;20032;-49
2023/07/25 09:47:34;;;;;;;2.35;0.90;;;;;;;19.12;100.00;100742.78;5074338;28;20047;-51
2023/07/25 09:49:59;;;;;;;3.00;1.30;;;;;;;19.40;100.00;100827.19;5092118;28;20032;-47
2023/07/25 09:52:25;;;;;;;3.92;0.68;;;;;;;19.55;100.00;100828.78;5091257;28;20399;-50
2023/07/25 09:54:50;;;;;;;1.65;0.52;;;;;;;19.55;100.00;100832.31;5091447;28;20479;-53
2023/07/25 09:57:16;;;;;;;2.85;1.00;;;;;;;19.29;100.00;100787.00;5092815;28;20063;-47
2023/07/25 09:59:42;;;;;;;5.53;0.80;;;;;;;19.00;100.00;100728.47;5094493;28;20547;-50
2023/07/25 10:02:08;;;;;;;1.63;0.45;;;;;;;19.86;100.00;100841.69;5110769;28;20059;-50
2023/07/25 10:04:37;;;;;;;2.63;0.70;;;;;;;20.13;100.00;100766.72;5073943;28;20345;-47
2023/07/25 10:07:02;;;;;;;2.03;0.80;;;;;;;21.44;100.00;100828.13;5073511;28;20063;-48
2023/07/25 10:09:31;;;;;;;1.30;0.47;;;;;;;21.58;100.00;100795.75;5095571;28;20060;-48
2023/07/25 10:11:56;;;;;;;4.50;0.60;;;;;;;21.80;100.00;100825.22;5101935;28;20036;-50
2023/07/25 10:14:22;;;;;;;2.45;0.52;;;;;;;22.08;100.00;100826.59;5091274;28;20506;-49
2023/07/25 10:16:47;;;;;;;1.88;0.85;;;;;;;22.12;100.00;100793.22;5108761;28;20362;-49
2023/07/25 10:19:13;;;;;;;5.03;1.20;;;;;;;21.37;100.00;100792.06;5111730;28;20032;-48
2023/07/25 10:21:52;;;;;;;2.00;0.47;;;;;;;21.18;100.00;100859.56;5093886;28;20043;-50
2023/07/25 10:24:20;;;;;;;2.35;0.50;;;;;;;20.86;100.00;100850.41;5093424;28;20023;-50
2023/07/25 10:27:14;;;;;;;3.72;0.80;;;;;;;22.42;100.00;100862.25;5097275;28;20036;-52
2023/07/25 10:29:42;;;;;;;3.58;0.63;;;;;;;22.24;100.00;100789.50;5073849;28;20119;-47
2023/07/25 10:32:09;;;;;;;1.70;0.68;;;;;;;22.14;100.00;100756.41;5094348;28;20168;-50
2023/07/25 10:35:01;;;;;;;1.65;0.80;;;;;;;22.73;100.00;100829.31;5075402;28;20028;-51
2023/07/25 10:37:28;;;;;;;1.45;0.57;;;;;;;23.22;100.00;100850.19;5075437;28;20028;-50
2023/07/25 10:40:14;;;;;;;2.47;0.60;;;;;;;23.00;100.00;100868.25;5075293;28;20035;-50
2023/07/25 10:42:49;;;;;;;0.93;0.50;;;;;;;23.49;100.00;100876.56;5093178;28;20032;-49
2023/07/25 10:45:27;;;;;;;2.38;0.52;;;;;;;24.12;100.00;100871.97;5092464;28;20051;-51
2023/07/25 10:47:53;;;;;;;2.75;0.45;;;;;;;23.81;100.00;100876.47;5093435;28;20028;-50
2023/07/25 10:50:19;;;;;;;4.50;0.75;;;;;;;22.19;100.00;100820.34;5093874;28;20415;-49
2023/07/25 10:52:46;;;;;;;2.80;0.60;;;;;;;21.76;100.00;100877.34;5092625;28;20067;-47
2023/07/25 10:55:12;;;;;;;2.33;0.65;;;;;;;21.19;100.00;100865.78;5095297;28;20027;-50
2023/07/25 10:57:37;;;;;;;1.77;0.95;;;;;;;21.26;100.00;100850.94;5094660;28;20524;-49
2023/07/25 11:00:09;;;;;;;1.35;0.50;;;;;;;21.00;100.00;100866.28;5110359;28;20164;-50
2023/07/25 11:02:38;;;;;;;2.22;0.75;;;;;;;20.57;100.00;100854.38;5113548;28;20032;-47
2023/07/25 11:05:12;;;;;;;1.30;0.60;;;;;;;20.27;100.00;100861.97;5113568;28;20467;-48
2023/07/25 11:07:39;;;;;;;1.98;0.40;;;;;;;20.39;100.00;100780.88;5098725;28;20051;-46
2023/07/25 11:10:05;;;;;;;1.75;0.40;;;;;;;21.52;100.00;100820.34;5095388;28;20035;-48
2023/07/25 11:12:31;;;;;;;2.60;0.52;;;;;;;22.90;100.00;100887.78;5110995;28;20035;-50